Time;durP1;ratioP1;P1;durP2;ratioP2;P2;SDS_P1;SDS_P2;PMS_P1;PMS_P2;Temp;Humidity;BMP_temperature;BMP_pressure;BME280_temperature;BME280_humidity;BME280_pressure;Samples;Min_cycle;Max_cycle;Signal;HPM_P1;HPM_P2
2023/03/07 00:00:56;;;;;;;14.32;8.15;;;3.10;99.90;;;;;;5049776;28;20215;-73
2023/03/07 00:03:22;;;;;;;13.97;7.23;;;3.10;99.90;;;;;;5051195;28;20657;-73
2023/03/07 00:05:48;;;;;;;11.43;7.90;;;3.10;99.90;;;;;;5049773;28;20438;-73
2023/03/07 00:08:13;;;;;;;11.33;7.53;;;3.10;99.90;;;;;;5050961;28;20204;-73
2023/03/07 00:10:39;;;;;;;11.37;7.20;;;3.10;99.90;;;;;;5050021;28;20662;-73
2023/03/07 00:13:05;;;;;;;13.70;7.60;;;3.00;99.90;;;;;;5051318;28;20186;-73
2023/03/07 00:15:30;;;;;;;12.40;7.67;;;3.10;99.90;;;;;;5049946;28;20185;-73
2023/03/07 00:17:57;;;;;;;12.13;6.67;;;3.00;99.90;;;;;;5049396;28;20270;-73
2023/03/07 00:20:22;;;;;;;14.98;7.95;;;3.00;99.90;;;;;;5049518;28;20205;-73
2023/03/07 00:22:48;;;;;;;11.87;7.50;;;3.00;99.90;;;;;;5050426;28;20181;-73
2023/03/07 00:25:14;;;;;;;12.60;7.80;;;3.00;99.90;;;;;;5049136;28;20186;-73
2023/03/07 00:27:40;;;;;;;12.52;6.93;;;3.00;99.90;;;;;;5050322;28;20597;-73
2023/03/07 00:30:08;;;;;;;12.45;7.60;;;3.00;99.90;;;;;;5050265;28;20195;-73
2023/03/07 00:32:34;;;;;;;11.27;7.65;;;3.00;99.90;;;;;;5050385;28;20532;-73
2023/03/07 00:35:00;;;;;;;20.27;6.93;;;3.00;99.90;;;;;;5050549;28;20200;-73
2023/03/07 00:37:26;;;;;;;11.27;7.78;;;3.00;99.90;;;;;;5050187;28;20708;-73
2023/03/07 00:39:51;;;;;;;14.60;7.93;;;3.00;99.90;;;;;;5048799;28;20265;-73
2023/03/07 00:42:17;;;;;;;13.50;8.10;;;2.90;99.90;;;;;;5048892;28;20188;-73
2023/03/07 00:44:42;;;;;;;10.63;7.00;;;3.00;99.90;;;;;;5050365;28;20179;-73
2023/03/07 00:47:08;;;;;;;13.27;8.40;;;3.00;99.90;;;;;;5049294;28;20194;-73
2023/03/07 00:49:34;;;;;;;10.00;6.47;;;3.00;99.90;;;;;;5049968;28;20206;-73
2023/03/07 00:51:59;;;;;;;13.23;7.47;;;3.00;99.90;;;;;;5049959;28;20239;-74
2023/03/07 00:54:25;;;;;;;11.23;7.13;;;2.90;99.90;;;;;;5048296;28;20911;-74
2023/03/07 00:56:51;;;;;;;11.60;7.10;;;3.00;99.90;;;;;;5049752;28;20254;-73
2023/03/07 00:59:16;;;;;;;11.37;7.60;;;3.00;99.90;;;;;;5049419;28;20684;-73
2023/03/07 01:01:42;;;;;;;9.93;6.77;;;3.00;99.90;;;;;;5049563;28;20185;-73
2023/03/07 01:04:08;;;;;;;13.13;8.40;;;3.00;99.90;;;;;;5047730;28;20198;-73
2023/03/07 01:06:34;;;;;;;12.57;7.87;;;3.00;99.90;;;;;;5048042;28;20184;-73
2023/03/07 01:09:03;;;;;;;11.52;7.65;;;3.10;99.90;;;;;;5049146;28;20708;-73
2023/03/07 01:11:30;;;;;;;11.82;7.63;;;3.00;99.90;;;;;;5048891;28;20337;-73
2023/03/07 01:13:57;;;;;;;11.57;8.30;;;3.10;99.90;;;;;;5047567;28;20230;-73
2023/03/07 01:16:32;;;;;;;11.45;8.05;;;3.10;99.90;;;;;;5048839;28;20714;-73
2023/03/07 01:19:01;;;;;;;14.20;8.57;;;3.10;99.90;;;;;;5048489;28;20274;-73
2023/03/07 01:21:28;;;;;;;15.20;9.23;;;3.10;99.90;;;;;;5048836;28;20182;-73
2023/03/07 01:23:54;;;;;;;10.35;7.07;;;3.10;99.90;;;;;;5048749;28;20283;-73
2023/03/07 01:26:23;;;;;;;12.25;8.02;;;3.10;99.90;;;;;;5048928;28;20911;-73
2023/03/07 01:28:53;;;;;;;14.52;9.30;;;3.10;99.90;;;;;;5048591;28;20204;-73
2023/03/07 01:31:20;;;;;;;11.73;7.43;;;3.10;99.90;;;;;;5047121;28;20185;-73
2023/03/07 01:33:47;;;;;;;15.55;8.93;;;3.10;99.90;;;;;;5031030;28;20178;-73
2023/03/07 01:36:20;;;;;;;14.02;7.93;;;3.00;99.90;;;;;;5030617;28;20219;-73
2023/03/07 01:38:49;;;;;;;14.57;8.88;;;3.00;99.90;;;;;;5047013;28;20212;-73
2023/03/07 01:41:15;;;;;;;11.85;7.53;;;3.00;99.90;;;;;;5048539;28;20192;-73
2023/03/07 01:43:41;;;;;;;16.88;9.05;;;2.90;99.90;;;;;;5048684;28;20200;-73
2023/03/07 01:46:24;;;;;;;13.67;8.90;;;3.00;99.90;;;;;;5048773;28;20290;-73
2023/03/07 01:49:06;;;;;;;19.95;9.18;;;2.90;99.90;;;;;;5048805;28;20214;-73
2023/03/07 01:51:33;;;;;;;14.15;8.85;;;3.00;99.90;;;;;;5048749;28;20184;-73
2023/03/07 01:54:00;;;;;;;19.13;8.57;;;3.00;99.90;;;;;;5048803;28;20622;-72
2023/03/07 01:56:26;;;;;;;11.77;7.93;;;2.90;99.90;;;;;;5048951;28;20173;-72
2023/03/07 01:58:53;;;;;;;10.75;7.70;;;2.90;99.90;;;;;;5050360;28;20279;-72
2023/03/07 02:01:19;;;;;;;13.43;7.10;;;2.90;99.90;;;;;;5052917;28;20972;-72
2023/03/07 02:04:36;;;;;;;12.77;8.03;;;2.90;99.90;;;;;;5052947;28;20214;-73
2023/03/07 02:07:02;;;;;;;12.75;7.50;;;2.90;99.90;;;;;;5028611;28;20859;-73
2023/03/07 02:09:30;;;;;;;12.82;7.70;;;2.80;99.90;;;;;;5052502;28;20291;-73
2023/03/07 02:11:59;;;;;;;11.45;7.72;;;2.80;99.90;;;;;;5052230;28;20659;-72
2023/03/07 02:14:24;;;;;;;14.60;8.10;;;2.70;99.90;;;;;;5051108;28;20191;-73
2023/03/07 02:16:51;;;;;;;12.33;7.17;;;2.80;99.90;;;;;;5050805;28;20362;-73
2023/03/07 02:19:39;;;;;;;12.60;7.80;;;2.90;99.90;;;;;;5051935;28;20235;-73
2023/03/07 02:22:10;;;;;;;13.02;7.78;;;2.90;99.90;;;;;;5050612;28;20184;-73
2023/03/07 02:25:00;;;;;;;14.52;8.40;;;3.00;99.90;;;;;;5052011;28;20182;-73
2023/03/07 02:27:29;;;;;;;9.23;6.60;;;3.00;99.90;;;;;;5051935;28;20181;-72
2023/03/07 02:29:54;;;;;;;10.63;7.13;;;3.00;99.90;;;;;;5051985;28;20335;-72
2023/03/07 02:32:20;;;;;;;13.97;7.73;;;3.00;99.90;;;;;;5050744;28;20278;-73
2023/03/07 02:34:46;;;;;;;15.13;8.57;;;3.00;99.90;;;;;;5051998;28;20200;-73
2023/03/07 02:37:14;;;;;;;13.77;7.47;;;3.10;99.90;;;;;;5051908;28;20485;-72
2023/03/07 02:39:41;;;;;;;9.60;6.47;;;3.00;99.90;;;;;;5050530;28;20299;-73
2023/03/07 02:42:11;;;;;;;17.77;8.70;;;3.10;99.90;;;;;;5033809;28;20197;-72
2023/03/07 02:44:36;;;;;;;15.75;8.55;;;3.00;99.90;;;;;;5052220;28;20517;-72
2023/03/07 02:47:04;;;;;;;11.20;8.00;;;3.00;99.90;;;;;;5051568;28;20189;-73
2023/03/07 02:49:29;;;;;;;15.38;8.52;;;3.10;99.90;;;;;;5051747;28;20209;-73
2023/03/07 02:51:59;;;;;;;11.60;6.87;;;3.10;99.90;;;;;;5050149;28;20190;-73
2023/03/07 02:54:25;;;;;;;13.23;8.13;;;3.10;99.90;;;;;;5051549;28;20176;-73
2023/03/07 02:56:51;;;;;;;12.07;7.00;;;3.00;99.90;;;;;;5051553;28;20734;-73
2023/03/07 02:59:17;;;;;;;15.85;7.75;;;3.10;99.90;;;;;;5049796;28;20217;-72
2023/03/07 03:01:42;;;;;;;9.30;6.50;;;3.10;99.90;;;;;;5051369;28;20205;-72
2023/03/07 03:04:08;;;;;;;11.90;7.50;;;3.00;99.70;;;;;;5051431;28;20192;-73
2023/03/07 03:06:34;;;;;;;12.40;7.20;;;3.00;99.80;;;;;;5051317;28;20247;-73
2023/03/07 03:08:59;;;;;;;12.50;7.33;;;3.00;99.80;;;;;;5032998;28;20352;-73
2023/03/07 03:11:25;;;;;;;11.30;7.20;;;3.00;99.90;;;;;;5049106;28;20264;-74
2023/03/07 03:13:51;;;;;;;11.53;7.50;;;3.00;99.80;;;;;;5050132;28;20886;-73
2023/03/07 03:16:16;;;;;;;12.00;7.90;;;3.00;99.80;;;;;;5050063;28;20207;-73
2023/03/07 03:18:42;;;;;;;12.53;7.70;;;3.10;99.90;;;;;;5052355;28;20225;-74
2023/03/07 03:21:11;;;;;;;14.67;7.83;;;3.00;99.30;;;;;;5051468;28;20243;-73
2023/03/07 03:23:37;;;;;;;11.27;7.20;;;3.00;99.00;;;;;;5050282;28;20603;-73
2023/03/07 03:26:06;;;;;;;12.07;8.20;;;3.00;99.50;;;;;;5050160;28;20195;-74
2023/03/07 03:28:33;;;;;;;13.77;7.65;;;2.90;99.40;;;;;;5050047;28;20222;-73
2023/03/07 03:31:01;;;;;;;11.67;7.50;;;2.90;99.50;;;;;;5051398;28;20282;-73
2023/03/07 03:33:30;;;;;;;11.88;7.53;;;2.80;99.10;;;;;;5050184;28;20425;-74
2023/03/07 03:36:05;;;;;;;12.82;7.97;;;2.80;99.30;;;;;;5049916;28;20280;-73
2023/03/07 03:38:32;;;;;;;12.23;7.45;;;2.80;99.30;;;;;;5049687;28;20213;-73
2023/03/07 03:40:58;;;;;;;9.07;6.43;;;2.80;99.40;;;;;;5051254;28;20178;-73
2023/03/07 03:43:23;;;;;;;11.00;8.07;;;2.80;99.40;;;;;;5051292;28;20939;-73
2023/03/07 03:45:56;;;;;;;11.80;6.77;;;2.80;99.20;;;;;;5051371;28;20179;-72
2023/03/07 03:48:22;;;;;;;11.65;7.55;;;2.80;98.90;;;;;;5051132;28;21303;-73
2023/03/07 03:50:48;;;;;;;16.07;7.80;;;2.80;98.90;;;;;;5051280;28;20200;-73
2023/03/07 03:53:13;;;;;;;13.10;8.13;;;2.90;99.10;;;;;;5050927;28;20427;-73
2023/03/07 03:55:39;;;;;;;10.87;7.30;;;2.90;98.70;;;;;;5048962;28;20197;-74
2023/03/07 03:58:05;;;;;;;12.00;7.43;;;2.90;98.50;;;;;;5049155;28;20217;-72
2023/03/07 04:00:30;;;;;;;11.70;6.70;;;2.80;98.30;;;;;;5050310;28;20292;-74
2023/03/07 04:02:56;;;;;;;11.90;8.00;;;2.90;98.40;;;;;;5050786;28;20189;-72
2023/03/07 04:05:22;;;;;;;13.80;8.27;;;2.90;98.10;;;;;;5050891;28;20198;-72
2023/03/07 04:07:48;;;;;;;11.13;6.93;;;2.80;98.20;;;;;;5050772;28;20197;-73
2023/03/07 04:10:14;;;;;;;21.50;7.03;;;2.90;98.10;;;;;;5049390;28;20415;-73
2023/03/07 04:12:40;;;;;;;11.33;7.50;;;2.80;97.70;;;;;;5049295;28;20432;-72
2023/03/07 04:15:06;;;;;;;12.30;7.27;;;2.90;97.80;;;;;;5049268;28;20445;-72
2023/03/07 04:17:33;;;;;;;11.13;7.10;;;2.90;97.80;;;;;;5050536;28;20426;-72
2023/03/07 04:19:58;;;;;;;11.80;7.32;;;2.90;97.60;;;;;;5049009;28;20217;-72
2023/03/07 04:22:24;;;;;;;12.43;6.93;;;2.90;97.30;;;;;;5050382;28;20183;-73
2023/03/07 04:24:50;;;;;;;12.53;7.63;;;2.90;97.40;;;;;;5050107;28;20188;-72
2023/03/07 04:27:16;;;;;;;12.20;7.70;;;2.90;97.50;;;;;;5050182;28;20659;-73
2023/03/07 04:29:42;;;;;;;11.00;7.88;;;3.00;97.50;;;;;;5049785;28;20207;-72
2023/03/07 04:32:07;;;;;;;12.67;7.37;;;3.00;96.80;;;;;;5050081;28;20195;-73
2023/03/07 04:34:33;;;;;;;11.07;7.50;;;3.10;97.20;;;;;;5050160;28;20211;-73
2023/03/07 04:36:58;;;;;;;11.80;7.40;;;3.10;96.70;;;;;;5048446;28;20208;-72
2023/03/07 04:39:24;;;;;;;11.43;7.37;;;3.00;97.00;;;;;;5049788;28;20701;-72
2023/03/07 04:41:50;;;;;;;9.13;6.17;;;3.00;96.80;;;;;;5049711;28;20179;-72
2023/03/07 04:44:16;;;;;;;9.70;6.47;;;3.00;96.50;;;;;;5049473;28;20447;-72
2023/03/07 04:46:41;;;;;;;10.50;6.50;;;3.10;96.60;;;;;;5049414;28;20180;-72
2023/03/07 04:49:08;;;;;;;18.60;7.77;;;3.00;96.60;;;;;;5048425;28;20297;-73
2023/03/07 04:51:33;;;;;;;10.13;6.95;;;3.10;96.90;;;;;;5031363;28;20539;-73
2023/03/07 04:53:59;;;;;;;11.80;7.27;;;3.10;96.60;;;;;;5049514;28;20288;-72
2023/03/07 04:56:25;;;;;;;10.57;6.70;;;3.10;96.60;;;;;;5048061;28;20235;-73
2023/03/07 04:58:51;;;;;;;11.70;7.72;;;3.10;97.00;;;;;;5031522;28;20480;-72
2023/03/07 05:01:17;;;;;;;11.80;7.60;;;3.10;97.00;;;;;;5049382;28;20186;-72
2023/03/07 05:03:43;;;;;;;13.60;8.57;;;3.10;97.20;;;;;;5049362;28;20178;-72
2023/03/07 05:06:14;;;;;;;12.90;8.27;;;3.20;97.00;;;;;;5049272;28;21136;-72
2023/03/07 05:08:39;;;;;;;9.95;6.63;;;3.20;96.80;;;;;;5049042;28;20213;-72
2023/03/07 05:11:05;;;;;;;17.00;7.87;;;3.10;96.60;;;;;;5047654;28;20183;-72
2023/03/07 05:13:31;;;;;;;11.83;7.60;;;3.10;96.50;;;;;;5049179;28;20186;-72
2023/03/07 05:15:58;;;;;;;11.53;7.00;;;3.20;96.60;;;;;;5049143;28;20223;-72
2023/03/07 05:18:24;;;;;;;12.05;7.38;;;3.20;96.70;;;;;;5049059;28;20483;-72
2023/03/07 05:20:50;;;;;;;11.68;7.68;;;3.20;97.00;;;;;;5049291;28;20563;-72
2023/03/07 05:23:17;;;;;;;10.37;6.97;;;3.20;96.90;;;;;;5047473;28;20193;-73
2023/03/07 05:25:42;;;;;;;13.50;7.53;;;3.20;96.80;;;;;;5049026;28;20879;-73
2023/03/07 05:28:08;;;;;;;13.23;7.30;;;3.20;96.80;;;;;;5048892;28;20258;-72
2023/03/07 05:30:33;;;;;;;13.37;7.50;;;3.20;96.90;;;;;;5049218;28;20192;-73
2023/03/07 05:32:59;;;;;;;14.73;8.40;;;3.20;96.80;;;;;;5047644;28;20181;-73
2023/03/07 05:35:25;;;;;;;11.93;7.63;;;3.20;97.40;;;;;;5047889;28;20689;-72
2023/03/07 05:37:51;;;;;;;14.93;7.90;;;3.30;97.10;;;;;;5049115;28;20228;-72
2023/03/07 05:40:17;;;;;;;12.27;7.03;;;3.30;97.00;;;;;;5049156;28;20182;-73
2023/03/07 05:42:43;;;;;;;12.23;8.20;;;3.30;97.00;;;;;;5049155;28;20181;-73
2023/03/07 05:45:10;;;;;;;11.17;7.30;;;3.30;96.80;;;;;;5048115;28;20176;-73
2023/03/07 05:47:36;;;;;;;11.20;6.25;;;3.30;97.20;;;;;;5049212;28;20177;-71
2023/03/07 05:50:02;;;;;;;11.40;8.05;;;3.30;96.80;;;;;;5049515;28;20201;-72
2023/03/07 05:52:27;;;;;;;14.00;7.97;;;3.30;97.00;;;;;;5049598;28;20562;-72
2023/03/07 05:54:53;;;;;;;11.73;7.83;;;3.30;97.00;;;;;;5048562;28;20434;-72
2023/03/07 05:57:20;;;;;;;12.97;7.87;;;3.30;97.10;;;;;;5049866;28;20424;-72
2023/03/07 05:59:46;;;;;;;11.15;7.47;;;3.30;96.90;;;;;;5049676;28;20482;-73
2023/03/07 06:02:12;;;;;;;14.77;8.07;;;3.30;96.70;;;;;;5050093;28;20189;-73
2023/03/07 06:04:38;;;;;;;12.53;7.33;;;3.40;97.10;;;;;;5048271;28;20189;-73
2023/03/07 06:07:03;;;;;;;12.10;7.60;;;3.40;97.20;;;;;;5047846;28;20416;-74
2023/03/07 06:09:29;;;;;;;14.80;6.70;;;3.40;97.00;;;;;;5047586;28;20217;-75
2023/03/07 06:11:54;;;;;;;11.53;7.30;;;3.30;97.20;;;;;;5048584;28;20522;-75
2023/03/07 06:14:20;;;;;;;14.40;7.20;;;3.30;97.00;;;;;;5047324;28;20192;-74
2023/03/07 06:16:46;;;;;;;11.07;7.70;;;3.30;97.30;;;;;;5047684;28;20714;-75
2023/03/07 06:19:11;;;;;;;10.73;6.57;;;3.40;97.50;;;;;;5047478;28;20325;-74
2023/03/07 06:21:37;;;;;;;13.50;7.37;;;3.40;96.90;;;;;;5031248;28;20459;-76
2023/03/07 06:24:04;;;;;;;15.57;7.07;;;3.40;97.00;;;;;;5047587;28;20220;-75
2023/03/07 06:26:30;;;;;;;11.90;7.45;;;3.40;97.60;;;;;;5049043;28;20191;-74
2023/03/07 06:28:55;;;;;;;10.23;7.03;;;3.50;97.40;;;;;;5048979;28;20217;-75
2023/03/07 06:31:21;;;;;;;10.57;7.40;;;3.50;97.30;;;;;;5048740;28;20185;-74
2023/03/07 06:33:47;;;;;;;9.63;6.57;;;3.50;96.80;;;;;;5047696;28;20276;-76
2023/03/07 06:36:15;;;;;;;14.55;7.28;;;3.50;96.80;;;;;;5046886;28;20209;-74
2023/03/07 06:38:41;;;;;;;9.80;6.75;;;3.50;96.60;;;;;;5048354;28;20992;-75
2023/03/07 06:41:07;;;;;;;11.50;7.03;;;3.60;97.30;;;;;;5047646;28;20236;-73
2023/03/07 06:43:33;;;;;;;12.32;7.72;;;3.70;97.20;;;;;;5048347;28;20534;-74
2023/03/07 06:45:59;;;;;;;9.77;6.82;;;3.60;97.20;;;;;;5050248;28;20194;-75
2023/03/07 06:48:24;;;;;;;9.67;6.87;;;3.70;96.90;;;;;;5052257;28;20205;-74
2023/03/07 06:50:50;;;;;;;15.33;8.20;;;3.70;96.80;;;;;;5051964;28;20444;-74
2023/03/07 06:53:16;;;;;;;11.73;7.17;;;3.70;96.80;;;;;;5050424;28;20214;-73
2023/03/07 06:55:41;;;;;;;9.57;6.47;;;3.80;97.00;;;;;;5050677;28;20186;-74
2023/03/07 06:58:07;;;;;;;12.17;7.00;;;3.90;97.00;;;;;;5050328;28;20447;-74
2023/03/07 07:00:33;;;;;;;11.10;7.30;;;4.00;97.10;;;;;;5051801;28;20747;-73
2023/03/07 07:02:58;;;;;;;11.33;7.10;;;4.10;96.50;;;;;;5050606;28;20588;-74
2023/03/07 07:05:24;;;;;;;12.43;6.97;;;4.10;96.00;;;;;;5051988;28;20265;-74
2023/03/07 07:07:50;;;;;;;11.30;7.63;;;4.10;95.80;;;;;;5050189;28;20203;-74
2023/03/07 07:10:15;;;;;;;10.40;6.80;;;4.10;95.90;;;;;;5052473;28;20198;-74
2023/03/07 07:12:41;;;;;;;11.30;6.40;;;4.10;95.50;;;;;;5050142;28;20194;-74
2023/03/07 07:15:08;;;;;;;11.30;6.90;;;4.20;95.50;;;;;;5051617;28;20194;-74
2023/03/07 07:17:34;;;;;;;12.43;6.55;;;4.20;95.60;;;;;;5051431;28;20194;-74
2023/03/07 07:20:01;;;;;;;13.25;6.90;;;4.40;94.90;;;;;;5049740;28;20215;-74
2023/03/07 07:22:26;;;;;;;8.68;5.82;;;4.30;94.40;;;;;;5049736;28;20272;-74
2023/03/07 07:24:52;;;;;;;9.83;7.00;;;4.30;94.70;;;;;;5050948;28;20272;-74
2023/03/07 07:27:18;;;;;;;17.20;10.23;;;4.20;94.00;;;;;;5051122;28;20194;-74
2023/03/07 07:29:44;;;;;;;8.93;6.75;;;4.20;94.30;;;;;;5049423;28;20252;-74
2023/03/07 07:32:09;;;;;;;12.80;7.03;;;4.30;94.70;;;;;;5049646;28;20190;-74
2023/03/07 07:34:35;;;;;;;11.33;6.70;;;4.40;95.10;;;;;;5049199;28;20273;-74
2023/03/07 07:37:00;;;;;;;10.23;7.27;;;4.40;94.20;;;;;;5049245;28;20732;-74
2023/03/07 07:39:26;;;;;;;9.47;6.50;;;4.40;94.10;;;;;;5032422;28;20330;-73
2023/03/07 07:41:52;;;;;;;9.47;5.80;;;4.30;94.10;;;;;;5048439;28;20184;-72
2023/03/07 07:44:17;;;;;;;10.17;6.93;;;4.30;94.40;;;;;;5048149;28;20187;-74
2023/03/07 07:46:43;;;;;;;12.30;8.37;;;4.30;93.30;;;;;;5048065;28;20188;-75
2023/03/07 07:49:08;;;;;;;15.70;8.93;;;4.40;94.50;;;;;;5049547;28;20207;-75
2023/03/07 07:51:34;;;;;;;10.30;7.33;;;4.50;94.30;;;;;;5049838;28;20658;-74
2023/03/07 07:54:00;;;;;;;10.07;6.90;;;4.60;93.80;;;;;;5049518;28;20190;-74
2023/03/07 07:56:25;;;;;;;14.83;6.80;;;4.60;92.70;;;;;;5049380;28;20194;-75
2023/03/07 07:58:51;;;;;;;11.40;7.43;;;4.60;92.40;;;;;;5031282;28;20481;-74
2023/03/07 08:01:19;;;;;;;9.27;6.43;;;4.70;93.10;;;;;;5047887;28;20193;-74
2023/03/07 08:03:45;;;;;;;9.38;5.72;;;4.90;93.00;;;;;;5048042;28;20826;-73
2023/03/07 08:06:11;;;;;;;9.10;6.33;;;5.10;93.20;;;;;;5049177;28;20180;-75
2023/03/07 08:08:37;;;;;;;9.55;6.70;;;5.10;92.20;;;;;;5047337;28;20455;-74
2023/03/07 08:11:02;;;;;;;10.97;5.97;;;5.10;92.20;;;;;;5047426;28;20203;-74
2023/03/07 08:13:28;;;;;;;8.10;6.17;;;5.20;92.40;;;;;;5047761;28;20193;-74
2023/03/07 08:15:54;;;;;;;9.10;5.90;;;5.30;92.10;;;;;;5031423;28;21075;-74
2023/03/07 08:18:19;;;;;;;9.40;6.60;;;5.30;91.70;;;;;;5048433;28;20219;-74
2023/03/07 08:20:45;;;;;;;10.00;6.43;;;5.40;91.20;;;;;;5049031;28;20187;-74
2023/03/07 08:23:11;;;;;;;10.80;6.23;;;5.50;91.60;;;;;;5049451;28;20190;-75
2023/03/07 08:25:36;;;;;;;11.30;6.80;;;5.60;91.70;;;;;;5048693;28;20210;-74
2023/03/07 08:28:04;;;;;;;8.63;6.13;;;5.70;90.80;;;;;;5048733;28;20489;-75
2023/03/07 08:30:31;;;;;;;7.50;5.63;;;6.00;90.50;;;;;;5047759;28;20176;-74
2023/03/07 08:32:58;;;;;;;12.20;6.43;;;6.00;90.10;;;;;;5048724;28;20513;-75
2023/03/07 08:35:25;;;;;;;12.13;7.68;;;5.90;88.40;;;;;;5048642;28;20430;-74
2023/03/07 08:37:56;;;;;;;8.50;6.17;;;6.10;89.40;;;;;;5048030;28;20224;-74
2023/03/07 08:40:23;;;;;;;8.63;6.43;;;6.20;89.10;;;;;;5047058;28;20831;-74
2023/03/07 08:42:49;;;;;;;9.57;6.20;;;6.00;87.40;;;;;;5047098;28;20410;-74
2023/03/07 08:45:15;;;;;;;10.80;6.40;;;5.80;89.30;;;;;;5030239;28;20188;-74
2023/03/07 08:47:40;;;;;;;8.43;6.00;;;5.90;89.60;;;;;;5046549;28;20233;-75
2023/03/07 08:50:07;;;;;;;8.63;6.10;;;5.90;86.30;;;;;;5048412;28;20184;-75
2023/03/07 08:52:32;;;;;;;11.53;6.60;;;6.00;88.00;;;;;;5048290;28;20565;-74
2023/03/07 08:54:58;;;;;;;13.40;5.70;;;6.00;87.90;;;;;;5048310;28;20410;-75
2023/03/07 08:57:24;;;;;;;9.10;5.70;;;6.10;87.70;;;;;;5048151;28;20294;-75
2023/03/07 08:59:50;;;;;;;9.33;6.10;;;5.90;86.50;;;;;;5048576;28;20294;-75
2023/03/07 09:02:16;;;;;;;10.33;5.90;;;5.80;85.90;;;;;;5046593;28;20823;-74
2023/03/07 09:04:41;;;;;;;9.02;6.20;;;5.90;88.00;;;;;;5048088;28;20180;-74
2023/03/07 09:07:07;;;;;;;8.20;6.30;;;5.90;87.20;;;;;;5048074;28;20269;-75
2023/03/07 09:09:33;;;;;;;7.53;5.97;;;5.80;87.00;;;;;;5047528;28;20203;-74
2023/03/07 09:11:58;;;;;;;9.67;6.50;;;5.80;86.20;;;;;;5048350;28;20215;-74
2023/03/07 09:14:24;;;;;;;8.60;6.20;;;5.90;87.50;;;;;;5048618;28;20222;-75
2023/03/07 09:16:49;;;;;;;12.40;6.10;;;5.90;86.00;;;;;;5046869;28;20187;-74
2023/03/07 09:19:15;;;;;;;8.90;6.23;;;6.00;87.10;;;;;;5046709;28;20210;-74
2023/03/07 09:21:41;;;;;;;12.70;6.83;;;6.10;87.30;;;;;;5046752;28;20254;-74
2023/03/07 09:24:07;;;;;;;8.77;6.40;;;6.00;85.70;;;;;;5048416;28;20658;-74
2023/03/07 09:26:32;;;;;;;12.37;5.90;;;6.00;85.40;;;;;;5048279;28;20195;-74
2023/03/07 09:28:58;;;;;;;9.50;5.83;;;6.00;86.50;;;;;;5048216;28;20434;-74
2023/03/07 09:31:24;;;;;;;6.50;5.10;;;5.90;86.20;;;;;;5048170;28;20188;-74
2023/03/07 09:33:51;;;;;;;8.33;5.53;;;5.80;84.50;;;;;;5047883;28;20262;-74
2023/03/07 09:36:17;;;;;;;10.17;6.30;;;5.80;84.20;;;;;;5046837;28;20473;-75
2023/03/07 09:38:45;;;;;;;7.40;5.07;;;5.90;86.30;;;;;;5048458;28;21282;-74
2023/03/07 09:41:55;;;;;;;9.17;5.30;;;5.90;84.10;;;;;;5048253;28;20560;-74
2023/03/07 09:44:44;;;;;;;7.00;5.43;;;6.10;86.40;;;;;;5047658;28;20498;-74
2023/03/07 09:47:12;;;;;;;12.73;5.70;;;6.20;84.50;;;;;;5047542;28;20479;-74
2023/03/07 09:49:49;;;;;;;8.40;6.23;;;6.10;82.90;;;;;;5047634;28;20980;-74
2023/03/07 09:52:38;;;;;;;5.83;4.50;;;6.10;83.70;;;;;;5047517;28;20516;-73
2023/03/07 09:55:10;;;;;;;10.00;4.87;;;6.10;83.20;;;;;;5047572;28;21177;-74
2023/03/07 09:57:50;;;;;;;7.60;5.87;;;6.00;83.00;;;;;;5046451;28;20937;-74
2023/03/07 10:00:41;;;;;;;8.47;5.80;;;6.00;83.30;;;;;;5047557;28;20464;-74
2023/03/07 10:03:22;;;;;;;8.10;5.70;;;5.80;83.90;;;;;;5044898;28;20434;-74
2023/03/07 10:05:50;;;;;;;9.73;6.00;;;5.80;84.30;;;;;;5047924;28;20411;-74
2023/03/07 10:08:20;;;;;;;8.35;6.00;;;5.80;84.80;;;;;;5047633;28;20434;-74
2023/03/07 10:10:59;;;;;;;7.47;5.67;;;5.80;85.90;;;;;;5046150;28;20290;-73
2023/03/07 10:13:33;;;;;;;7.37;5.43;;;5.70;84.10;;;;;;5047623;28;20414;-74
2023/03/07 10:16:25;;;;;;;9.20;5.70;;;5.60;82.50;;;;;;5046981;28;20496;-73
2023/03/07 10:19:17;;;;;;;6.37;5.00;;;5.50;83.20;;;;;;5047160;28;20461;-74
2023/03/07 10:21:59;;;;;;;8.53;5.90;;;5.40;83.90;;;;;;5051501;28;20406;-74
2023/03/07 10:24:39;;;;;;;12.40;6.90;;;5.40;85.10;;;;;;5051178;28;20413;-75
2023/03/07 10:27:11;;;;;;;9.10;5.73;;;5.40;86.10;;;;;;5051366;28;20421;-74
2023/03/07 10:29:46;;;;;;;12.00;4.97;;;5.50;85.80;;;;;;5051811;28;20983;-75
2023/03/07 10:32:36;;;;;;;10.00;6.27;;;5.30;85.40;;;;;;5050140;28;20424;-74
2023/03/07 10:35:10;;;;;;;6.83;5.80;;;5.50;86.60;;;;;;5051228;28;20410;-74
2023/03/07 10:37:51;;;;;;;8.27;5.53;;;5.50;84.90;;;;;;5051628;28;20494;-74
2023/03/07 10:40:20;;;;;;;9.63;6.10;;;5.70;85.40;;;;;;5051698;28;21048;-74
2023/03/07 10:42:46;;;;;;;9.98;6.57;;;5.70;85.80;;;;;;5051569;28;20418;-74
2023/03/07 10:45:13;;;;;;;7.87;5.63;;;5.40;83.00;;;;;;5050261;28;20584;-75
2023/03/07 10:47:39;;;;;;;11.93;6.37;;;5.60;85.00;;;;;;5051682;28;20234;-73
2023/03/07 10:50:28;;;;;;;11.23;6.40;;;5.70;84.40;;;;;;5051647;28;20426;-75
2023/03/07 10:52:57;;;;;;;7.27;5.70;;;5.80;83.10;;;;;;5040289;28;20856;-74
2023/03/07 10:55:40;;;;;;;8.47;5.87;;;5.80;83.00;;;;;;5049846;28;20431;-74
2023/03/07 10:58:19;;;;;;;8.77;6.30;;;5.70;79.40;;;;;;5050985;28;20440;-74
2023/03/07 11:01:00;;;;;;;9.13;5.77;;;5.80;81.10;;;;;;5051290;28;21329;-74
2023/03/07 11:03:30;;;;;;;10.50;6.00;;;5.70;77.90;;;;;;5051072;28;20412;-75
2023/03/07 11:05:56;;;;;;;6.33;5.13;;;5.70;78.80;;;;;;5051047;28;20437;-74
2023/03/07 11:08:30;;;;;;;8.03;5.53;;;5.70;78.10;;;;;;5050855;28;20434;-74
2023/03/07 11:10:56;;;;;;;9.67;5.77;;;5.70;78.80;;;;;;5050836;28;20409;-74
2023/03/07 11:13:23;;;;;;;7.33;5.13;;;5.70;78.60;;;;;;5050767;28;20406;-74
2023/03/07 11:15:49;;;;;;;7.47;5.80;;;6.00;78.60;;;;;;5050722;28;20460;-74
2023/03/07 11:18:44;;;;;;;10.17;5.37;;;6.10;77.40;;;;;;5050602;28;21211;-74
2023/03/07 11:21:33;;;;;;;7.60;5.60;;;6.40;78.40;;;;;;5045323;28;20521;-74
2023/03/07 11:24:05;;;;;;;9.43;5.70;;;6.60;78.20;;;;;;5049954;28;20460;-74
2023/03/07 11:26:38;;;;;;;8.60;6.10;;;6.70;77.80;;;;;;5048407;28;20426;-74
2023/03/07 11:29:13;;;;;;;7.87;5.53;;;6.80;76.60;;;;;;5048181;28;20919;-74
2023/03/07 11:32:16;;;;;;;10.40;6.10;;;6.90;77.80;;;;;;5049172;28;20418;-74
2023/03/07 11:35:12;;;;;;;9.80;6.40;;;7.00;76.50;;;;;;5050082;28;20576;-74
2023/03/07 11:37:51;;;;;;;9.63;6.40;;;6.80;75.80;;;;;;5049638;28;20436;-72
2023/03/07 11:40:22;;;;;;;12.77;6.30;;;6.90;75.90;;;;;;5049927;28;20579;-75
2023/03/07 11:42:59;;;;;;;9.57;6.27;;;7.10;75.40;;;;;;5049596;28;20933;-74
2023/03/07 11:45:54;;;;;;;8.60;5.97;;;7.00;74.50;;;;;;5049753;28;20933;-74
2023/03/07 11:48:50;;;;;;;8.13;6.00;;;7.00;73.60;;;;;;5049698;28;20634;-74
2023/03/07 11:51:47;;;;;;;7.80;5.77;;;7.10;74.40;;;;;;5049613;28;20413;-75
2023/03/07 11:54:35;;;;;;;14.73;6.97;;;7.20;74.30;;;;;;5049527;28;20793;-74
2023/03/07 11:57:36;;;;;;;10.13;5.93;;;7.10;74.40;;;;;;5049726;28;20456;-75
2023/03/07 12:00:26;;;;;;;9.53;6.93;;;7.10;74.10;;;;;;5049531;28;20461;-75
2023/03/07 12:03:23;;;;;;;9.50;7.27;;;7.10;72.30;;;;;;5047906;28;20418;-74
2023/03/07 12:06:07;;;;;;;7.43;6.10;;;6.90;74.20;;;;;;5049725;28;20418;-75
2023/03/07 12:08:54;;;;;;;11.67;8.20;;;6.80;73.30;;;;;;5050101;28;20442;-74
2023/03/07 12:11:51;;;;;;;13.10;7.77;;;6.90;74.80;;;;;;5049901;28;20414;-75
2023/03/07 12:14:31;;;;;;;8.97;6.20;;;6.90;74.70;;;;;;5049893;28;20410;-74
2023/03/07 12:17:15;;;;;;;11.93;7.13;;;6.70;75.30;;;;;;5050179;28;20446;-74
2023/03/07 12:19:59;;;;;;;8.33;5.70;;;6.70;75.20;;;;;;5049653;28;20461;-75
2023/03/07 12:22:27;;;;;;;12.17;6.90;;;6.60;73.80;;;;;;5050689;28;20415;-74
2023/03/07 12:25:11;;;;;;;14.03;7.30;;;6.70;75.60;;;;;;5050171;28;20422;-75
2023/03/07 12:28:01;;;;;;;11.80;6.97;;;6.60;74.80;;;;;;5049798;28;20406;-74
2023/03/07 12:30:42;;;;;;;10.00;6.70;;;6.60;74.70;;;;;;5049954;28;20487;-74
2023/03/07 12:33:20;;;;;;;13.60;6.60;;;6.60;74.50;;;;;;5049673;28;20414;-74
2023/03/07 12:35:51;;;;;;;12.40;7.20;;;6.60;74.90;;;;;;5048062;28;20446;-74
2023/03/07 12:39:00;;;;;;;13.40;6.90;;;6.80;74.60;;;;;;5049539;28;20448;-73
2023/03/07 12:41:28;;;;;;;18.07;8.37;;;7.10;73.00;;;;;;5038535;28;20430;-74
2023/03/07 12:44:02;;;;;;;10.73;6.70;;;7.40;73.20;;;;;;5047010;28;20418;-75
2023/03/07 12:46:37;;;;;;;11.07;7.10;;;7.60;73.00;;;;;;5049313;28;20410;-75
2023/03/07 12:49:14;;;;;;;10.47;7.10;;;8.00;71.40;;;;;;5048923;28;20465;-74
2023/03/07 12:51:49;;;;;;;11.87;6.53;;;8.00;68.60;;;;;;5048954;28;20401;-75
2023/03/07 12:54:41;;;;;;;11.00;6.90;;;8.70;71.30;;;;;;5048926;28;20430;-74
2023/03/07 12:57:27;;;;;;;11.50;7.73;;;8.90;67.60;;;;;;5048784;28;20502;-75
2023/03/07 12:59:58;;;;;;;11.67;6.80;;;8.50;67.80;;;;;;5030548;28;20890;-73
2023/03/07 13:02:29;;;;;;;13.03;7.73;;;8.40;67.40;;;;;;5048684;28;20411;-74
2023/03/07 13:04:56;;;;;;;17.63;7.60;;;8.40;67.60;;;;;;5048686;28;20407;-74